METAR Data
IDs: Format: Raw Decoded Include TAF

Data at: 1850 UTC 16 Oct 2021

KSRE 161835Z AUTO 32009KT 290V350 10SM CLR 20/M03 A3036 RMK AO2